Time;durP1;ratioP1;P1;durP2;ratioP2;P2;SDS_P1;SDS_P2;PMS_P1;PMS_P2;Temp;Humidity;BMP_temperature;BMP_pressure;BME280_temperature;BME280_humidity;BME280_pressure;Samples;Min_cycle;Max_cycle;Signal;HPM_P1;HPM_P2
2024/01/07 00:00:18;;;;;;;22.90;9.40;;;4.40;99.90;;;;;;5062294;28;20028;-92
2024/01/07 00:02:44;;;;;;;22.13;10.90;;;4.40;99.90;;;;;;5074634;28;20542;-94
2024/01/07 00:05:09;;;;;;;23.80;9.63;;;4.30;99.90;;;;;;5081585;28;20033;-92
2024/01/07 00:07:35;;;;;;;19.60;9.40;;;4.30;99.90;;;;;;5062960;28;20021;-94
2024/01/07 00:10:00;;;;;;;22.52;9.70;;;4.40;99.90;;;;;;5081540;28;20035;-92
2024/01/07 00:12:26;;;;;;;24.35;10.38;;;4.30;99.90;;;;;;5083748;28;20554;-93
2024/01/07 00:14:52;;;;;;;21.02;8.85;;;4.40;99.90;;;;;;5082577;28;20027;-94
2024/01/07 00:17:17;;;;;;;20.95;10.70;;;4.40;99.90;;;;;;5080441;28;20039;-92
2024/01/07 00:19:44;;;;;;;22.02;10.10;;;4.40;99.90;;;;;;5078375;28;20056;-91
2024/01/07 00:22:10;;;;;;;19.85;10.05;;;4.40;99.90;;;;;;5076901;28;20028;-94
2024/01/07 00:24:35;;;;;;;19.75;9.68;;;4.40;99.90;;;;;;5081051;28;20029;-95
2024/01/07 00:27:01;;;;;;;18.48;9.23;;;4.40;99.90;;;;;;5075197;28;20525;-93
2024/01/07 00:29:27;;;;;;;19.48;8.70;;;4.30;99.90;;;;;;5061998;28;20028;-91
2024/01/07 00:31:52;;;;;;;19.33;9.18;;;4.30;99.90;;;;;;5082172;28;20333;-94
2024/01/07 00:34:18;;;;;;;20.92;9.02;;;4.30;99.90;;;;;;5080990;28;20032;-95
2024/01/07 00:36:43;;;;;;;17.67;8.65;;;4.20;99.90;;;;;;5082662;28;20043;-91
2024/01/07 00:39:09;;;;;;;18.38;8.68;;;4.20;99.90;;;;;;5078808;28;20036;-93
2024/01/07 00:41:35;;;;;;;21.88;9.65;;;4.30;99.90;;;;;;5063307;28;20119;-94
2024/01/07 00:44:00;;;;;;;17.10;8.25;;;4.20;99.90;;;;;;5070099;28;20028;-93
2024/01/07 00:46:26;;;;;;;18.83;9.38;;;4.20;99.90;;;;;;5061230;28;20047;-93
2024/01/07 00:48:51;;;;;;;18.98;8.18;;;4.20;99.90;;;;;;5079753;28;20040;-93
2024/01/07 00:51:17;;;;;;;17.92;8.05;;;4.20;99.90;;;;;;5079470;28;20387;-93
2024/01/07 00:53:44;;;;;;;18.30;9.18;;;4.20;99.90;;;;;;5062873;28;20016;-93
2024/01/07 00:56:09;;;;;;;16.40;9.05;;;4.20;99.90;;;;;;5064151;28;20028;-93
2024/01/07 00:58:36;;;;;;;22.25;9.98;;;4.10;99.90;;;;;;5074974;28;20097;-93
2024/01/07 01:01:02;;;;;;;19.45;9.13;;;4.20;99.90;;;;;;5073755;28;20112;-93
2024/01/07 01:03:28;;;;;;;14.60;8.55;;;4.10;99.90;;;;;;5061921;28;20039;-95
2024/01/07 01:05:53;;;;;;;17.45;8.20;;;4.20;99.90;;;;;;5083491;28;20038;-94
2024/01/07 01:08:19;;;;;;;19.27;9.48;;;4.10;99.90;;;;;;5064636;28;20021;-93
2024/01/07 01:10:45;;;;;;;18.40;9.68;;;4.10;99.90;;;;;;5079443;28;20020;-94
2024/01/07 01:13:11;;;;;;;20.50;10.13;;;4.10;99.90;;;;;;5068855;28;20039;-93
2024/01/07 01:15:36;;;;;;;18.60;9.70;;;4.10;99.90;;;;;;5080883;28;20031;-94
2024/01/07 01:18:02;;;;;;;19.40;8.65;;;4.00;99.90;;;;;;5079306;28;20038;-92
2024/01/07 01:20:28;;;;;;;19.67;9.57;;;4.00;99.90;;;;;;5083423;28;20091;-93
2024/01/07 01:22:53;;;;;;;17.58;9.82;;;4.00;99.90;;;;;;5080914;28;20029;-92
2024/01/07 01:25:19;;;;;;;18.38;9.32;;;4.00;99.90;;;;;;5081219;28;20025;-92
2024/01/07 01:27:45;;;;;;;23.25;10.25;;;4.00;99.90;;;;;;5081879;28;20044;-91
2024/01/07 01:30:11;;;;;;;23.40;10.35;;;4.00;99.90;;;;;;5063103;28;20025;-93
2024/01/07 01:32:38;;;;;;;22.70;12.13;;;4.00;99.90;;;;;;5086623;28;20359;-93
2024/01/07 01:35:05;;;;;;;24.05;10.77;;;4.00;99.90;;;;;;5082694;28;20028;-93
2024/01/07 01:37:32;;;;;;;19.40;10.23;;;4.00;99.90;;;;;;5087708;28;20028;-94
2024/01/07 01:39:58;;;;;;;21.52;9.65;;;4.00;99.90;;;;;;5088935;28;20025;-93
2024/01/07 01:42:24;;;;;;;20.42;9.75;;;3.90;99.90;;;;;;5070876;28;20032;-93
2024/01/07 01:44:50;;;;;;;20.42;10.02;;;4.00;99.90;;;;;;5062673;28;20032;-93
2024/01/07 01:47:16;;;;;;;21.92;10.38;;;4.00;99.90;;;;;;5081260;28;20032;-94
2024/01/07 01:49:42;;;;;;;23.75;10.48;;;4.00;99.90;;;;;;5080390;28;20028;-92
2024/01/07 01:52:09;;;;;;;21.70;9.48;;;4.00;99.90;;;;;;5078715;28;20025;-94
2024/01/07 01:54:35;;;;;;;21.52;10.18;;;4.00;99.90;;;;;;5080802;28;20029;-92
2024/01/07 01:57:01;;;;;;;27.92;11.77;;;3.90;99.90;;;;;;5076972;28;20020;-93
2024/01/07 01:59:28;;;;;;;20.05;9.25;;;4.00;99.90;;;;;;5068712;28;20189;-92
2024/01/07 02:01:55;;;;;;;22.00;9.68;;;3.90;99.90;;;;;;5080988;28;20023;-93
2024/01/07 02:04:21;;;;;;;23.35;11.70;;;4.00;99.90;;;;;;5078934;28;20017;-92
2024/01/07 02:06:46;;;;;;;27.42;11.98;;;4.00;99.90;;;;;;5078664;28;20031;-93
2024/01/07 02:09:12;;;;;;;27.42;11.40;;;4.00;99.90;;;;;;5079347;28;20024;-92
2024/01/07 02:11:37;;;;;;;24.85;10.18;;;4.00;99.90;;;;;;5078997;28;20024;-93
2024/01/07 02:14:03;;;;;;;21.77;10.23;;;3.90;99.90;;;;;;5081702;28;20088;-93
2024/01/07 02:16:29;;;;;;;25.35;10.55;;;3.90;99.90;;;;;;5081823;28;20029;-93
2024/01/07 02:18:54;;;;;;;24.45;9.73;;;3.90;99.90;;;;;;5080852;28;20031;-91
2024/01/07 02:21:20;;;;;;;26.33;10.02;;;3.90;99.90;;;;;;5082346;28;20032;-92
2024/01/07 02:23:45;;;;;;;25.60;12.20;;;4.00;99.90;;;;;;5073324;28;20059;-93
2024/01/07 02:26:11;;;;;;;22.05;8.85;;;3.90;99.90;;;;;;5088912;28;20043;-92
2024/01/07 02:28:37;;;;;;;28.52;11.85;;;3.90;99.90;;;;;;5083133;28;20031;-93
2024/01/07 02:31:03;;;;;;;27.48;10.90;;;3.90;99.90;;;;;;5089273;28;20105;-93
2024/01/07 02:33:30;;;;;;;25.38;10.77;;;3.90;99.90;;;;;;5082427;28;20032;-94
2024/01/07 02:35:56;;;;;;;22.95;9.23;;;4.00;99.90;;;;;;5062958;28;20025;-95
2024/01/07 02:38:22;;;;;;;27.92;11.15;;;4.00;99.90;;;;;;5088442;28;20433;-93
2024/01/07 02:40:47;;;;;;;22.67;9.68;;;4.00;99.90;;;;;;5082526;28;20167;-92
2024/01/07 02:43:13;;;;;;;17.98;9.10;;;4.00;99.90;;;;;;5080401;28;20020;-93
2024/01/07 02:45:38;;;;;;;22.98;10.07;;;3.90;99.90;;;;;;5068071;28;20067;-92
2024/01/07 02:48:04;;;;;;;23.25;10.68;;;3.90;99.90;;;;;;5083580;28;20063;-93
2024/01/07 02:50:32;;;;;;;21.67;9.73;;;4.00;99.90;;;;;;5081352;28;20043;-92
2024/01/07 02:52:57;;;;;;;23.17;9.38;;;3.90;99.90;;;;;;5080869;28;20028;-92
2024/01/07 02:55:23;;;;;;;21.17;8.23;;;3.90;99.90;;;;;;5083391;28;20389;-92
2024/01/07 02:57:49;;;;;;;21.73;8.85;;;3.90;99.90;;;;;;5081458;28;20625;-93
2024/01/07 03:00:15;;;;;;;22.27;9.10;;;3.80;99.90;;;;;;5077108;28;20025;-92
2024/01/07 03:02:40;;;;;;;23.92;9.02;;;3.80;99.90;;;;;;5082105;28;20025;-92
2024/01/07 03:05:06;;;;;;;21.05;8.95;;;3.90;99.90;;;;;;5080449;28;20016;-92
2024/01/07 03:07:32;;;;;;;21.95;9.70;;;3.80;99.90;;;;;;5077243;28;20021;-92
2024/01/07 03:09:57;;;;;;;20.00;8.93;;;3.80;99.90;;;;;;5072976;28;20054;-93
2024/01/07 03:12:23;;;;;;;19.77;7.93;;;3.80;99.90;;;;;;5088789;28;20474;-92
2024/01/07 03:14:49;;;;;;;21.02;10.82;;;3.80;99.90;;;;;;5080205;28;20024;-94
2024/01/07 03:17:17;;;;;;;20.70;9.30;;;3.80;99.90;;;;;;5068940;28;20089;-91
2024/01/07 03:19:42;;;;;;;22.95;9.23;;;3.90;99.90;;;;;;5075971;28;20032;-93
2024/01/07 03:22:08;;;;;;;25.85;10.23;;;3.80;99.90;;;;;;5080909;28;20513;-93
2024/01/07 03:24:34;;;;;;;23.27;9.25;;;3.90;99.90;;;;;;5082227;28;20429;-94
2024/01/07 03:26:59;;;;;;;21.38;8.52;;;3.90;99.90;;;;;;5081434;28;20538;-93
2024/01/07 03:29:25;;;;;;;21.85;9.38;;;3.90;99.90;;;;;;5063285;28;20029;-93
2024/01/07 03:31:52;;;;;;;20.38;9.45;;;3.90;99.90;;;;;;5070306;28;20073;-94
2024/01/07 03:34:18;;;;;;;24.88;9.30;;;3.90;99.90;;;;;;5081929;28;20052;-94
2024/01/07 03:36:44;;;;;;;23.13;8.68;;;3.90;99.90;;;;;;5081524;28;20027;-93
2024/01/07 03:39:09;;;;;;;23.35;9.57;;;3.80;99.90;;;;;;5070527;28;20044;-92
2024/01/07 03:41:35;;;;;;;22.08;8.77;;;3.90;99.90;;;;;;5082348;28;20020;-92
2024/01/07 03:44:01;;;;;;;24.70;9.20;;;3.90;99.90;;;;;;5081394;28;20028;-93
2024/01/07 03:46:26;;;;;;;21.25;8.40;;;3.80;99.90;;;;;;5075962;28;20035;-93
2024/01/07 03:48:52;;;;;;;23.95;10.32;;;3.80;99.90;;;;;;5084763;28;20096;-92
2024/01/07 03:51:17;;;;;;;21.75;8.88;;;3.90;99.90;;;;;;5067469;28;20032;-92
2024/01/07 03:53:43;;;;;;;20.55;10.52;;;3.90;99.90;;;;;;5081375;28;20029;-92
2024/01/07 03:56:09;;;;;;;24.58;10.30;;;3.90;99.90;;;;;;5084512;28;20016;-96
2024/01/07 03:58:35;;;;;;;21.30;9.20;;;3.90;99.90;;;;;;5098019;28;20023;-95
2024/01/07 04:01:00;;;;;;;25.38;8.95;;;3.80;99.90;;;;;;5098548;28;20024;-96
2024/01/07 04:03:26;;;;;;;25.77;10.00;;;3.90;99.90;;;;;;5081113;28;20008;-96
2024/01/07 04:05:52;;;;;;;22.10;8.95;;;3.80;99.90;;;;;;5081635;28;20016;-96
2024/01/07 04:08:18;;;;;;;23.00;9.73;;;3.80;99.90;;;;;;5109217;28;20020;-94
2024/01/07 04:10:43;;;;;;;24.75;10.05;;;3.80;99.90;;;;;;5088784;28;20052;-93
2024/01/07 04:13:12;;;;;;;27.77;10.30;;;3.80;99.90;;;;;;5080099;28;20443;-92
2024/01/07 04:15:38;;;;;;;18.75;8.25;;;3.90;99.90;;;;;;5084839;28;20104;-92
2024/01/07 04:18:04;;;;;;;21.10;9.50;;;3.80;99.90;;;;;;5078744;28;20641;-92
2024/01/07 04:20:30;;;;;;;21.08;9.10;;;3.80;99.90;;;;;;5081796;28;20035;-93
2024/01/07 04:22:57;;;;;;;16.60;7.72;;;3.90;99.90;;;;;;5065972;28;20082;-91
2024/01/07 04:25:23;;;;;;;17.98;8.30;;;3.90;99.90;;;;;;5062868;28;20097;-92
2024/01/07 04:27:49;;;;;;;17.60;9.27;;;3.80;99.90;;;;;;5081681;28;20020;-92
2024/01/07 04:30:15;;;;;;;17.27;8.98;;;3.90;99.90;;;;;;5080719;28;20428;-93
2024/01/07 04:32:40;;;;;;;18.05;8.65;;;3.80;99.90;;;;;;5086473;28;20079;-92
2024/01/07 04:35:06;;;;;;;20.13;8.55;;;3.80;99.90;;;;;;5058481;28;20031;-92
2024/01/07 04:37:33;;;;;;;16.05;8.73;;;3.80;99.90;;;;;;5070684;28;20107;-91
2024/01/07 04:40:01;;;;;;;19.55;9.13;;;3.90;99.90;;;;;;5077439;28;20021;-92
2024/01/07 04:42:26;;;;;;;16.85;7.35;;;3.80;99.90;;;;;;5082981;28;20024;-92
2024/01/07 04:44:52;;;;;;;17.27;7.95;;;3.80;99.90;;;;;;5082737;28;20035;-92
2024/01/07 04:47:35;;;;;;;20.67;8.00;;;3.80;99.90;;;;;;5092392;28;20025;-92
2024/01/07 04:50:02;;;;;;;20.30;8.45;;;3.80;99.90;;;;;;5067785;28;20033;-93
2024/01/07 04:52:27;;;;;;;17.08;8.05;;;3.80;99.90;;;;;;5059273;28;20039;-93
2024/01/07 04:54:54;;;;;;;19.45;8.75;;;3.80;99.90;;;;;;5060385;28;20028;-94
2024/01/07 04:57:20;;;;;;;20.20;8.50;;;3.80;99.90;;;;;;5080306;28;20688;-91
2024/01/07 04:59:47;;;;;;;21.70;9.60;;;3.80;99.90;;;;;;5074074;28;20033;-94
2024/01/07 05:02:12;;;;;;;19.85;8.68;;;3.80;99.90;;;;;;5080432;28;20478;-92
2024/01/07 05:04:38;;;;;;;18.73;8.80;;;3.80;99.90;;;;;;5079896;28;20054;-94
2024/01/07 05:07:04;;;;;;;20.63;9.52;;;3.70;99.90;;;;;;5065887;28;20052;-92
2024/01/07 05:09:34;;;;;;;18.33;9.25;;;3.80;99.90;;;;;;5080484;28;20035;-93
2024/01/07 05:12:00;;;;;;;22.85;11.30;;;3.80;99.90;;;;;;5073662;28;20482;-93
2024/01/07 05:14:26;;;;;;;21.58;9.48;;;3.70;99.90;;;;;;5081728;28;20081;-93
2024/01/07 05:16:54;;;;;;;15.68;8.25;;;3.70;99.90;;;;;;5080845;28;20096;-93
2024/01/07 05:19:20;;;;;;;18.73;8.93;;;3.80;99.90;;;;;;5080575;28;20534;-93
2024/01/07 05:21:46;;;;;;;21.15;8.57;;;3.70;99.90;;;;;;5081327;28;20040;-93
2024/01/07 05:24:11;;;;;;;19.02;8.95;;;3.80;99.90;;;;;;5080792;28;20028;-93
2024/01/07 05:26:42;;;;;;;20.23;10.35;;;3.70;99.90;;;;;;5084971;28;20035;-92
2024/01/07 05:29:07;;;;;;;20.85;10.25;;;3.70;99.90;;;;;;5075776;28;20028;-93
2024/01/07 05:31:33;;;;;;;20.20;10.00;;;3.70;99.90;;;;;;5086930;28;20667;-93
2024/01/07 05:33:58;;;;;;;22.17;11.05;;;3.70;99.90;;;;;;5081157;28;20028;-93
2024/01/07 05:36:24;;;;;;;24.10;10.15;;;3.70;99.90;;;;;;5077091;28;20028;-91
2024/01/07 05:38:50;;;;;;;21.08;9.98;;;3.70;99.90;;;;;;5065173;28;20047;-93
2024/01/07 05:41:15;;;;;;;15.15;8.32;;;3.70;99.90;;;;;;5073779;28;20020;-93
2024/01/07 05:43:41;;;;;;;21.77;9.27;;;3.70;99.90;;;;;;5081941;28;20025;-93
2024/01/07 05:46:06;;;;;;;23.40;9.27;;;3.70;99.90;;;;;;5083325;28;20021;-93
2024/01/07 05:48:44;;;;;;;19.15;9.57;;;3.70;99.90;;;;;;5082916;28;20039;-91
2024/01/07 05:51:10;;;;;;;20.73;9.32;;;3.70;99.90;;;;;;5080884;28;20017;-93
2024/01/07 05:53:35;;;;;;;22.70;10.38;;;3.70;99.90;;;;;;5050782;28;20029;-91
2024/01/07 05:56:01;;;;;;;21.35;9.52;;;3.70;99.90;;;;;;5059947;28;20086;-91
2024/01/07 05:58:27;;;;;;;24.30;10.55;;;3.70;99.90;;;;;;5062801;28;20024;-92
2024/01/07 06:00:53;;;;;;;24.58;10.55;;;3.70;99.90;;;;;;5079142;28;20429;-93
2024/01/07 06:03:18;;;;;;;21.02;9.85;;;3.80;99.90;;;;;;5058716;28;20044;-92
2024/01/07 06:05:44;;;;;;;18.00;9.55;;;3.70;99.90;;;;;;5070818;28;20033;-91
2024/01/07 06:08:10;;;;;;;17.92;9.98;;;3.70;99.90;;;;;;5083721;28;20047;-91
2024/01/07 06:10:35;;;;;;;18.75;9.93;;;3.70;99.90;;;;;;5080711;28;20020;-94
2024/01/07 06:13:02;;;;;;;22.23;9.40;;;3.70;99.90;;;;;;5079977;28;20060;-93
2024/01/07 06:15:28;;;;;;;19.00;9.13;;;3.70;99.90;;;;;;5080000;28;20013;-93
2024/01/07 06:17:55;;;;;;;22.13;11.07;;;3.70;99.90;;;;;;5080216;28;20052;-92
2024/01/07 06:20:20;;;;;;;22.58;9.68;;;3.70;99.90;;;;;;5062628;28;20059;-90
2024/01/07 06:22:46;;;;;;;19.38;9.63;;;3.70;99.90;;;;;;5081463;28;20029;-93
2024/01/07 06:25:12;;;;;;;18.17;9.80;;;3.70;99.90;;;;;;5079830;28;20471;-92
2024/01/07 06:27:38;;;;;;;20.15;10.52;;;3.70;99.90;;;;;;5079426;28;20267;-93
2024/01/07 06:30:05;;;;;;;17.48;9.30;;;3.70;99.90;;;;;;5063560;28;20082;-93
2024/01/07 06:32:32;;;;;;;21.05;10.63;;;3.70;99.90;;;;;;5079993;28;20031;-93
2024/01/07 06:35:01;;;;;;;19.48;9.80;;;3.70;99.90;;;;;;5075769;28;20035;-93
2024/01/07 06:37:29;;;;;;;17.77;9.32;;;3.70;99.90;;;;;;5081611;28;20029;-93
2024/01/07 06:39:55;;;;;;;21.92;9.75;;;3.80;99.90;;;;;;5076149;28;20507;-93
2024/01/07 06:42:20;;;;;;;20.20;10.32;;;3.70;99.90;;;;;;5082934;28;20700;-92
2024/01/07 06:44:46;;;;;;;19.92;8.43;;;3.80;99.90;;;;;;5085846;28;20028;-93
2024/01/07 06:47:12;;;;;;;18.20;8.82;;;3.80;99.90;;;;;;5080222;28;20379;-93
2024/01/07 06:52:24;;;;;;;22.38;11.88;;;3.70;99.90;;;;;;5129973;27;20474;-92
2024/01/07 06:54:50;;;;;;;22.23;13.05;;;3.80;99.90;;;;;;5133771;27;20031;-91
2024/01/07 06:57:15;;;;;;;20.65;12.93;;;3.80;99.90;;;;;;5130559;27;20123;-91
2024/01/07 06:59:44;;;;;;;18.40;12.77;;;3.80;99.90;;;;;;5145133;27;20111;-92
2024/01/07 07:02:10;;;;;;;19.88;12.65;;;3.80;99.90;;;;;;5148307;27;20104;-92
2024/01/07 07:04:36;;;;;;;20.42;12.60;;;3.80;99.90;;;;;;5156088;27;20019;-90
2024/01/07 07:07:02;;;;;;;21.92;13.98;;;3.80;99.90;;;;;;5154696;27;20015;-91
2024/01/07 07:09:30;;;;;;;20.95;12.73;;;3.80;99.90;;;;;;5140569;27;20015;-91
2024/01/07 07:11:56;;;;;;;23.75;13.75;;;3.80;99.90;;;;;;5156973;27;20084;-91
2024/01/07 07:14:25;;;;;;;25.90;14.23;;;3.80;99.90;;;;;;5154590;27;20046;-92
2024/01/07 07:16:50;;;;;;;21.58;12.98;;;3.80;99.90;;;;;;5139573;27;20019;-91
2024/01/07 07:19:22;;;;;;;22.48;13.07;;;3.80;99.90;;;;;;5134551;27;20034;-90
2024/01/07 07:21:48;;;;;;;25.77;13.93;;;3.80;99.90;;;;;;5147158;27;20056;-92
2024/01/07 07:24:13;;;;;;;27.85;15.18;;;3.80;99.90;;;;;;5136877;27;20034;-92
2024/01/07 07:26:40;;;;;;;23.17;13.65;;;3.80;99.90;;;;;;5156393;27;20408;-92
2024/01/07 07:29:09;;;;;;;23.35;12.38;;;3.80;99.90;;;;;;5134762;27;20087;-90
2024/01/07 07:31:35;;;;;;;25.48;11.73;;;3.80;99.90;;;;;;5127880;27;20023;-92
2024/01/07 07:34:03;;;;;;;25.42;12.93;;;3.80;99.90;;;;;;5132633;27;20019;-94
2024/01/07 07:36:29;;;;;;;23.63;13.05;;;3.80;99.90;;;;;;5158769;27;20477;-91
2024/01/07 07:38:55;;;;;;;19.50;9.45;;;3.80;99.90;;;;;;5138965;27;20956;-90
2024/01/07 07:41:21;;;;;;;23.88;12.73;;;3.80;99.90;;;;;;5150755;27;20481;-92
2024/01/07 07:43:46;;;;;;;18.65;11.60;;;3.80;99.90;;;;;;5152755;27;20006;-93
2024/01/07 07:46:13;;;;;;;22.45;11.82;;;3.90;99.90;;;;;;5154016;27;20031;-93
2024/01/07 07:48:39;;;;;;;20.33;12.15;;;3.90;99.90;;;;;;5137864;27;20031;-94
2024/01/07 07:51:07;;;;;;;21.50;13.55;;;3.90;99.90;;;;;;5154943;27;20222;-92
2024/01/07 07:53:39;;;;;;;22.40;12.55;;;3.90;99.90;;;;;;5129159;27;20043;-92
2024/01/07 07:56:08;;;;;;;21.55;14.13;;;3.90;99.90;;;;;;5136712;27;20016;-95
2024/01/07 07:58:34;;;;;;;24.77;12.95;;;3.80;99.90;;;;;;5133933;27;20015;-94
2024/01/07 08:01:04;;;;;;;22.35;13.77;;;3.90;99.90;;;;;;5152121;27;20020;-93
2024/01/07 08:03:33;;;;;;;20.85;12.00;;;3.90;99.90;;;;;;5136975;27;20015;-90
2024/01/07 08:05:58;;;;;;;21.02;12.18;;;3.90;99.90;;;;;;5152173;27;20095;-92
2024/01/07 08:08:30;;;;;;;24.45;12.98;;;3.80;99.90;;;;;;5130412;27;20019;-93
2024/01/07 08:10:56;;;;;;;27.27;13.73;;;3.90;99.90;;;;;;5143836;27;20028;-92
2024/01/07 08:13:21;;;;;;;20.63;12.15;;;3.90;99.90;;;;;;5147469;27;20061;-93
2024/01/07 08:15:47;;;;;;;21.15;14.25;;;3.90;99.90;;;;;;5126042;27;20016;-93
2024/01/07 08:18:18;;;;;;;25.88;12.02;;;3.90;99.90;;;;;;5135467;27;20027;-93
2024/01/07 08:20:43;;;;;;;20.05;12.10;;;3.90;99.90;;;;;;5120240;27;20033;-94
2024/01/07 08:23:15;;;;;;;24.38;13.55;;;3.90;99.90;;;;;;5150185;27;20031;-93
2024/01/07 08:25:45;;;;;;;21.60;13.35;;;4.00;99.90;;;;;;5127611;27;20114;-91
2024/01/07 08:28:13;;;;;;;19.90;11.65;;;3.90;99.90;;;;;;5115675;27;20042;-91
2024/01/07 08:30:38;;;;;;;20.73;11.68;;;3.90;99.90;;;;;;5122459;27;20024;-92
2024/01/07 08:33:04;;;;;;;21.88;11.93;;;3.90;99.90;;;;;;5117872;28;20059;-90
2024/01/07 08:35:30;;;;;;;22.17;13.00;;;4.00;99.90;;;;;;5139839;27;20020;-92
2024/01/07 08:37:56;;;;;;;25.75;12.43;;;4.00;99.90;;;;;;5125238;27;20046;-93
2024/01/07 08:40:24;;;;;;;22.33;12.90;;;4.00;99.90;;;;;;5138390;27;20061;-91
2024/01/07 08:42:55;;;;;;;;;;;4.00;99.90;;;;;;5141789;27;20011;-92
2024/01/07 08:45:21;;;;;;;25.17;12.85;;;4.10;99.90;;;;;;5111673;27;19911;-92
2024/01/07 08:47:49;;;;;;;24.92;12.82;;;4.00;99.90;;;;;;5120543;28;20594;-92
2024/01/07 08:50:20;;;;;;;30.13;13.82;;;4.10;99.90;;;;;;5114112;27;20075;-91
2024/01/07 08:52:54;;;;;;;25.00;10.57;;;4.10;99.90;;;;;;5136930;27;20275;-94
2024/01/07 08:55:29;;;;;;;24.35;14.55;;;4.20;99.90;;;;;;5138768;27;20141;-92
2024/01/07 08:57:54;;;;;;;25.23;13.90;;;4.10;99.90;;;;;;5143277;27;20022;-91
2024/01/07 09:00:30;;;;;;;26.08;14.80;;;4.20;99.90;;;;;;5141676;27;20031;-92
2024/01/07 09:02:59;;;;;;;23.55;13.68;;;4.20;99.90;;;;;;5114346;27;20086;-94
2024/01/07 09:05:36;;;;;;;26.17;13.48;;;4.30;99.90;;;;;;5124025;27;20042;-93
2024/01/07 09:08:07;;;;;;;21.35;12.80;;;4.20;99.90;;;;;;5146510;27;20096;-92
2024/01/07 09:10:33;;;;;;;22.05;14.55;;;4.20;99.90;;;;;;5141126;27;20035;-91
2024/01/07 09:13:02;;;;;;;26.58;13.85;;;4.20;99.90;;;;;;5134366;27;20075;-92
2024/01/07 09:15:28;;;;;;;22.38;13.82;;;4.30;99.90;;;;;;5135090;27;20023;-91
2024/01/07 09:17:57;;;;;;;27.38;14.52;;;4.30;99.90;;;;;;5117632;27;20034;-93
2024/01/07 09:20:22;;;;;;;30.48;14.25;;;4.20;99.90;;;;;;5116760;27;20024;-92
2024/01/07 09:22:48;;;;;;;25.30;14.40;;;4.30;99.90;;;;;;5118896;27;20027;-92
2024/01/07 09:25:14;;;;;;;29.10;13.73;;;4.30;99.90;;;;;;5126156;27;20840;-92
2024/01/07 09:27:39;;;;;;;28.50;15.70;;;4.30;99.90;;;;;;5141420;27;20867;-91
2024/01/07 09:30:06;;;;;;;26.73;16.05;;;4.30;99.90;;;;;;5130959;27;20065;-92
2024/01/07 09:32:32;;;;;;;23.05;13.65;;;4.30;99.90;;;;;;5143312;27;20023;-91
2024/01/07 09:34:57;;;;;;;33.05;19.98;;;4.40;99.90;;;;;;5125884;27;20110;-92
2024/01/07 09:37:26;;;;;;;30.90;16.42;;;4.40;99.90;;;;;;5145746;27;20054;-92
2024/01/07 09:39:55;;;;;;;27.63;12.25;;;4.40;99.90;;;;;;5146629;27;20196;-91
2024/01/07 09:42:20;;;;;;;28.38;16.45;;;4.30;99.90;;;;;;5128924;27;20031;-91
2024/01/07 09:44:47;;;;;;;34.38;19.23;;;4.40;99.90;;;;;;5123488;27;20032;-90
2024/01/07 09:47:16;;;;;;;35.50;20.05;;;4.40;99.90;;;;;;5137536;27;20015;-92
2024/01/07 09:49:45;;;;;;;32.08;18.83;;;4.40;99.90;;;;;;5144458;27;20052;-92
2024/01/07 09:52:12;;;;;;;31.35;19.38;;;4.40;99.90;;;;;;5144749;27;20031;-92
2024/01/07 09:54:39;;;;;;;35.60;20.10;;;4.40;99.90;;;;;;5137231;27;20041;-91
2024/01/07 09:57:08;;;;;;;63.00;30.85;;;4.40;99.90;;;;;;5117477;27;20015;-91
2024/01/07 09:59:36;;;;;;;25.98;15.52;;;4.40;99.90;;;;;;5139020;27;20048;-92
2024/01/07 10:02:11;;;;;;;25.02;17.17;;;4.40;99.90;;;;;;5139644;27;20023;-92
2024/01/07 10:04:37;;;;;;;30.48;16.50;;;4.40;99.90;;;;;;5106645;27;20326;-92
2024/01/07 10:07:03;;;;;;;26.63;14.60;;;4.40;99.90;;;;;;5131022;27;20049;-92
2024/01/07 10:09:32;;;;;;;25.95;14.40;;;4.50;99.90;;;;;;5131072;27;20043;-91
2024/01/07 10:11:58;;;;;;;19.63;12.25;;;4.50;99.90;;;;;;5122817;27;20011;-91
2024/01/07 10:14:27;;;;;;;22.52;13.75;;;4.60;99.90;;;;;;5137220;27;20158;-90
2024/01/07 10:16:53;;;;;;;22.35;14.43;;;4.70;99.90;;;;;;5143997;27;20030;-92
2024/01/07 10:19:23;;;;;;;25.55;13.25;;;4.70;99.90;;;;;;5141429;27;20088;-91
2024/01/07 10:22:02;;;;;;;22.00;14.60;;;4.80;99.90;;;;;;5132577;27;20027;-92
2024/01/07 10:24:48;;;;;;;19.85;13.32;;;4.80;99.90;;;;;;5116818;27;20090;-92
2024/01/07 10:27:14;;;;;;;21.92;15.00;;;4.80;99.90;;;;;;5110684;28;20080;-92
2024/01/07 10:29:40;;;;;;;23.60;12.75;;;4.80;99.90;;;;;;5147336;27;20039;-92
2024/01/07 10:32:08;;;;;;;15.88;11.05;;;4.80;99.90;;;;;;5121784;27;20023;-94
2024/01/07 10:34:36;;;;;;;18.85;13.23;;;4.80;99.90;;;;;;5119031;28;20015;-92
2024/01/07 10:37:10;;;;;;;18.00;13.02;;;4.80;99.90;;;;;;5145349;27;20030;-93
2024/01/07 10:39:36;;;;;;;23.77;12.90;;;4.80;99.90;;;;;;5136148;27;20019;-93
2024/01/07 10:42:02;;;;;;;18.13;11.65;;;4.80;99.90;;;;;;5115026;28;20099;-93
2024/01/07 10:44:31;;;;;;;22.13;13.18;;;4.80;99.90;;;;;;5129369;27;20031;-92
2024/01/07 10:46:58;;;;;;;17.63;13.43;;;4.80;99.90;;;;;;5138417;27;20123;-93
2024/01/07 10:49:28;;;;;;;19.70;12.18;;;4.80;99.90;;;;;;5120611;28;20016;-91
2024/01/07 10:52:04;;;;;;;18.75;12.18;;;4.90;99.90;;;;;;5129471;28;20027;-91
2024/01/07 10:54:34;;;;;;;22.77;13.85;;;4.90;99.90;;;;;;5120552;28;20026;-92
2024/01/07 10:57:04;;;;;;;20.13;13.32;;;4.80;99.90;;;;;;5109092;28;20408;-93
2024/01/07 10:59:37;;;;;;;19.90;12.98;;;4.80;99.90;;;;;;5104475;28;20066;-92
2024/01/07 11:02:13;;;;;;;20.77;13.90;;;4.70;99.90;;;;;;5115984;28;20028;-93
2024/01/07 11:05:23;;;;;;;24.35;15.45;;;4.60;99.90;;;;;;5107688;28;20155;-91
2024/01/07 11:08:04;;;;;;;22.33;14.55;;;4.70;99.90;;;;;;5108818;28;20031;-92
2024/01/07 11:10:45;;;;;;;26.38;16.58;;;4.60;99.90;;;;;;5124621;28;20040;-91
2024/01/07 11:13:31;;;;;;;22.80;12.98;;;4.60;99.90;;;;;;5127600;28;20549;-92
2024/01/07 11:15:59;;;;;;;21.83;15.70;;;4.50;99.90;;;;;;5129299;28;20715;-92
2024/01/07 11:18:31;;;;;;;19.42;13.18;;;4.50;99.90;;;;;;5106596;28;20110;-91
2024/01/07 11:21:03;;;;;;;22.00;13.20;;;4.40;99.90;;;;;;5101671;28;20046;-92
2024/01/07 11:23:33;;;;;;;19.85;12.20;;;4.40;99.90;;;;;;5112511;28;20380;-91
2024/01/07 11:26:00;;;;;;;17.13;11.32;;;4.30;99.90;;;;;;5119760;27;20011;-92
2024/01/07 11:29:33;;;;;;;20.63;13.40;;;4.30;99.90;;;;;;5136429;28;20019;-91
2024/01/07 11:32:01;;;;;;;18.95;13.73;;;4.30;99.90;;;;;;4997136;28;20049;-93
2024/01/07 11:34:41;;;;;;;21.60;14.13;;;4.20;99.90;;;;;;5035170;28;20503;-92
2024/01/07 11:37:12;;;;;;;17.50;12.38;;;4.20;99.90;;;;;;5106950;27;20027;-93
2024/01/07 11:40:11;;;;;;;20.08;11.38;;;4.20;99.90;;;;;;5106388;28;20011;-93
2024/01/07 11:42:37;;;;;;;21.23;14.60;;;4.20;99.90;;;;;;5122756;27;20394;-92
2024/01/07 11:45:05;;;;;;;12.55;10.10;;;4.20;99.90;;;;;;5123911;28;20038;-93
2024/01/07 11:47:31;;;;;;;12.65;10.57;;;4.10;99.90;;;;;;5141888;27;20015;-92
2024/01/07 11:50:17;;;;;;;18.83;10.82;;;4.00;96.80;;;;;;5138344;27;20062;-89
2024/01/07 11:52:46;;;;;;;29.02;15.93;;;4.00;97.40;;;;;;5131845;27;20634;-91
2024/01/07 11:55:12;;;;;;;10.88;8.57;;;4.10;97.40;;;;;;5113503;28;20020;-91
2024/01/07 11:57:48;;;;;;;12.60;9.65;;;4.00;97.00;;;;;;5138190;27;20473;-92
2024/01/07 12:00:17;;;;;;;13.63;10.15;;;4.00;97.70;;;;;;5157826;27;20016;-93
2024/01/07 12:02:43;;;;;;;11.30;9.43;;;4.00;95.40;;;;;;5140392;27;20049;-91
2024/01/07 12:05:23;;;;;;;15.95;10.45;;;4.10;93.50;;;;;;5134391;27;20019;-93
2024/01/07 12:07:52;;;;;;;21.17;11.93;;;4.10;95.00;;;;;;5124182;28;20047;-93
2024/01/07 12:10:19;;;;;;;11.80;8.45;;;4.10;94.40;;;;;;5086938;22;20442;-93
2024/01/07 12:12:45;;;;;;;26.63;13.80;;;4.10;92.60;;;;;;5059982;28;20089;-92
2024/01/07 12:15:12;;;;;;;18.73;11.50;;;4.10;94.10;;;;;;5051299;28;20546;-92
2024/01/07 12:17:40;;;;;;;39.42;20.73;;;4.20;94.10;;;;;;5071514;28;20492;-91
2024/01/07 12:20:08;;;;;;;28.83;16.05;;;4.10;94.20;;;;;;5071834;28;20066;-92
2024/01/07 12:22:38;;;;;;;11.50;8.68;;;4.20;95.50;;;;;;5077395;28;20017;-92
2024/01/07 12:25:05;;;;;;;12.80;9.25;;;4.10;94.50;;;;;;5078392;28;20021;-91
2024/01/07 12:27:32;;;;;;;11.55;9.65;;;4.20;93.90;;;;;;5073916;28;20362;-92
2024/01/07 12:29:58;;;;;;;15.57;11.02;;;4.20;94.60;;;;;;5059564;28;20021;-92
2024/01/07 12:32:27;;;;;;;20.42;11.75;;;4.20;94.60;;;;;;5078516;28;20183;-93
2024/01/07 12:34:53;;;;;;;9.50;8.43;;;4.20;94.70;;;;;;5059009;28;20080;-92
2024/01/07 12:37:19;;;;;;;12.88;9.00;;;4.20;95.20;;;;;;5079191;28;20073;-94
2024/01/07 12:39:44;;;;;;;9.98;8.88;;;4.20;94.40;;;;;;5062172;28;20521;-93
2024/01/07 12:42:10;;;;;;;14.65;10.32;;;4.20;95.40;;;;;;5061812;28;20027;-91
2024/01/07 12:44:36;;;;;;;13.70;9.88;;;4.20;97.10;;;;;;5074048;28;20100;-92